Time;durP1;ratioP1;P1;durP2;ratioP2;P2;SDS_P1;SDS_P2;PMS_P1;PMS_P2;Temp;Humidity;BMP_temperature;BMP_pressure;BME280_temperature;BME280_humidity;BME280_pressure;Samples;Min_cycle;Max_cycle;Signal;HPM_P1;HPM_P2
2022/01/06 00:02:03;;;;;;;65.97;42.92;;;;;;;;;;5014641;28;20079;-83
2022/01/06 00:04:30;;;;;;;73.80;45.00;;;;;;;;;;5014968;28;20084;-83
2022/01/06 00:06:56;;;;;;;76.43;48.25;;;;;;;;;;5032087;28;20097;-82
2022/01/06 00:09:22;;;;;;;78.78;50.35;;;;;;;;;;5032892;28;20384;-83
2022/01/06 00:11:49;;;;;;;81.13;48.97;;;;;;;;;;5035839;28;20026;-82
2022/01/06 00:14:34;;;;;;;97.22;57.35;;;;;;;;;;5036908;28;20427;-84
2022/01/06 00:17:22;;;;;;;102.28;62.25;;;;;;;;;;5005815;28;20028;-83
2022/01/06 00:25:17;;;;;;;99.20;56.80;;;;;;;;;;5036138;28;20048;-83
2022/01/06 00:27:43;;;;;;;91.53;58.00;;;;;;;;;;5036206;28;20384;-83
2022/01/06 00:30:09;;;;;;;93.20;56.92;;;;;;;;;;5036548;28;20021;-82
2022/01/06 00:32:43;;;;;;;87.60;53.20;;;;;;;;;;5036319;28;20109;-82
2022/01/06 00:35:09;;;;;;;83.50;49.25;;;;;;;;;;5036420;28;20460;-82
2022/01/06 00:37:35;;;;;;;81.70;46.72;;;;;;;;;;5036193;28;20491;-84
2022/01/06 00:40:01;;;;;;;81.72;46.55;;;;;;;;;;5036053;28;20030;-83
2022/01/06 00:42:28;;;;;;;69.45;42.95;;;;;;;;;;5036496;28;20487;-84
2022/01/06 00:44:54;;;;;;;61.97;37.08;;;;;;;;;;5033719;28;20079;-84
2022/01/06 00:47:20;;;;;;;57.30;31.95;;;;;;;;;;5034489;28;20025;-83
2022/01/06 00:49:47;;;;;;;55.63;30.25;;;;;;;;;;5036151;28;20029;-83
2022/01/06 00:52:13;;;;;;;58.33;34.20;;;;;;;;;;5029845;28;20053;-82
2022/01/06 00:54:40;;;;;;;48.10;28.67;;;;;;;;;;5030425;28;20096;-82
2022/01/06 00:57:06;;;;;;;54.70;27.63;;;;;;;;;;5014186;28;20053;-82
2022/01/06 00:59:32;;;;;;;43.90;27.52;;;;;;;;;;5035720;28;20080;-82
2022/01/06 01:01:59;;;;;;;51.15;29.10;;;;;;;;;;5034626;28;20108;-83
2022/01/06 01:04:25;;;;;;;53.80;31.67;;;;;;;;;;5035530;28;20029;-83
2022/01/06 01:06:51;;;;;;;64.50;35.20;;;;;;;;;;5035381;28;20112;-82
2022/01/06 01:09:17;;;;;;;57.60;31.77;;;;;;;;;;5035351;28;20026;-82
2022/01/06 01:11:44;;;;;;;56.20;31.67;;;;;;;;;;5033907;28;20079;-83
2022/01/06 01:14:18;;;;;;;52.50;31.40;;;;;;;;;;5017188;28;20373;-84
2022/01/06 01:17:12;;;;;;;55.30;29.52;;;;;;;;;;5033199;28;20025;-83
2022/01/06 01:19:32;;;;;;;51.13;28.98;;;;;;;;;;5033408;28;20037;-83
2022/01/06 01:21:58;;;;;;;58.00;30.85;;;;;;;;;;5033229;28;20508;-81
2022/01/06 01:24:25;;;;;;;49.28;28.95;;;;;;;;;;5030536;28;20033;-84
2022/01/06 01:26:51;;;;;;;48.53;28.25;;;;;;;;;;5034934;28;20116;-83
2022/01/06 01:29:19;;;;;;;53.83;28.08;;;;;;;;;;5034753;28;20075;-83
2022/01/06 01:31:52;;;;;;;46.85;27.45;;;;;;;;;;5034270;28;20075;-83
2022/01/06 01:34:27;;;;;;;49.22;27.63;;;;;;;;;;5034344;28;20036;-83
2022/01/06 01:36:55;;;;;;;48.08;25.38;;;;;;;;;;5017199;28;20030;-82
2022/01/06 01:39:22;;;;;;;51.97;26.42;;;;;;;;;;5034520;28;20535;-83
2022/01/06 01:41:49;;;;;;;45.30;26.85;;;;;;;;;;5033820;28;20112;-83
2022/01/06 01:44:18;;;;;;;46.08;25.50;;;;;;;;;;5034079;28;20480;-82
2022/01/06 01:46:52;;;;;;;52.75;27.40;;;;;;;;;;5035188;28;20025;-82
2022/01/06 01:51:48;;;;;;;45.13;24.38;;;;;;;;;;5034819;28;20487;-82
2022/01/06 01:54:14;;;;;;;42.65;22.67;;;;;;;;;;5027871;28;20044;-83
2022/01/06 01:56:40;;;;;;;43.90;24.33;;;;;;;;;;5016377;28;20033;-83
2022/01/06 01:59:07;;;;;;;39.53;21.58;;;;;;;;;;5032262;28;20045;-83
2022/01/06 02:01:33;;;;;;;38.72;21.85;;;;;;;;;;5013656;28;20057;-83
2022/01/06 02:03:59;;;;;;;40.65;21.70;;;;;;;;;;5034382;28;20496;-82
2022/01/06 02:06:25;;;;;;;38.85;21.90;;;;;;;;;;5013457;28;20022;-83
2022/01/06 02:08:53;;;;;;;47.08;23.52;;;;;;;;;;5018057;28;20034;-85
2022/01/06 02:11:19;;;;;;;37.05;19.83;;;;;;;;;;5005692;28;20494;-82
2022/01/06 02:13:46;;;;;;;44.85;23.10;;;;;;;;;;5034181;28;20358;-82
2022/01/06 02:16:12;;;;;;;37.67;21.08;;;;;;;;;;5033399;28;20438;-82
2022/01/06 02:18:39;;;;;;;39.53;21.73;;;;;;;;;;5016076;28;20472;-83
2022/01/06 02:21:05;;;;;;;48.85;24.02;;;;;;;;;;5028209;28;20072;-83
2022/01/06 02:23:32;;;;;;;43.25;23.52;;;;;;;;;;5017054;28;20389;-82
2022/01/06 02:25:58;;;;;;;53.50;25.10;;;;;;;;;;5033195;28;20108;-83
2022/01/06 02:28:24;;;;;;;41.90;24.50;;;;;;;;;;5030256;28;20026;-82
2022/01/06 02:30:51;;;;;;;43.03;22.88;;;;;;;;;;5013437;28;20030;-82
2022/01/06 02:33:21;;;;;;;43.05;23.52;;;;;;;;;;5028120;28;20021;-82
2022/01/06 02:35:48;;;;;;;47.25;24.83;;;;;;;;;;5024914;28;20029;-82
2022/01/06 02:38:14;;;;;;;52.97;26.92;;;;;;;;;;5022534;28;20472;-82
2022/01/06 02:40:41;;;;;;;44.75;24.00;;;;;;;;;;5030296;28;20053;-82
2022/01/06 02:43:07;;;;;;;50.50;27.77;;;;;;;;;;5025227;28;20045;-83
2022/01/06 02:45:35;;;;;;;56.47;28.33;;;;;;;;;;5033576;28;20044;-82
2022/01/06 02:48:08;;;;;;;53.15;28.77;;;;;;;;;;5010540;28;20489;-81
2022/01/06 02:50:35;;;;;;;57.28;30.13;;;;;;;;;;5048498;28;20017;-83
2022/01/06 02:53:02;;;;;;;58.30;28.85;;;;;;;;;;5046981;28;20052;-85
2022/01/06 02:55:28;;;;;;;50.10;27.45;;;;;;;;;;5053652;28;20020;-81
2022/01/06 02:57:54;;;;;;;60.80;30.83;;;;;;;;;;5039961;28;20056;-82
2022/01/06 03:00:21;;;;;;;65.70;32.67;;;;;;;;;;5044998;28;20036;-82
2022/01/06 03:02:48;;;;;;;60.15;32.25;;;;;;;;;;5050796;28;20025;-84
2022/01/06 03:05:16;;;;;;;62.38;32.05;;;;;;;;;;5035492;28;20044;-84
2022/01/06 03:07:42;;;;;;;72.80;33.72;;;;;;;;;;5033904;28;20037;-85
2022/01/06 03:10:11;;;;;;;65.60;36.72;;;;;;;;;;5037626;28;20041;-83
2022/01/06 03:12:41;;;;;;;65.47;36.83;;;;;;;;;;5019595;28;20032;-82
2022/01/06 03:15:08;;;;;;;75.45;37.90;;;;;;;;;;5035416;28;20037;-85
2022/01/06 03:17:36;;;;;;;76.60;37.83;;;;;;;;;;5009945;28;20039;-85
2022/01/06 03:20:04;;;;;;;73.47;36.63;;;;;;;;;;5028715;28;20048;-84
2022/01/06 03:22:30;;;;;;;59.35;33.08;;;;;;;;;;5013183;28;20037;-83
2022/01/06 03:24:56;;;;;;;78.80;37.40;;;;;;;;;;5030938;28;20116;-84
2022/01/06 03:27:22;;;;;;;86.38;38.47;;;;;;;;;;5025552;28;20025;-82
2022/01/06 03:29:50;;;;;;;84.75;37.17;;;;;;;;;;5009526;28;20114;-83
2022/01/06 03:32:19;;;;;;;58.92;32.97;;;;;;;;;;5011062;28;20539;-81
2022/01/06 03:34:46;;;;;;;57.95;32.58;;;;;;;;;;5030785;28;20104;-83
2022/01/06 03:37:12;;;;;;;56.30;32.20;;;;;;;;;;5024324;28;20393;-85
2022/01/06 03:39:39;;;;;;;66.82;33.33;;;;;;;;;;5025988;28;20107;-84
2022/01/06 03:42:05;;;;;;;64.85;34.13;;;;;;;;;;5034544;28;20028;-83
2022/01/06 03:44:32;;;;;;;81.35;41.03;;;;;;;;;;5022807;28;20033;-83
2022/01/06 03:46:58;;;;;;;79.45;39.53;;;;;;;;;;5027376;28;20021;-83
2022/01/06 03:49:24;;;;;;;73.13;36.47;;;;;;;;;;5009782;28;20028;-83
2022/01/06 03:51:51;;;;;;;73.38;36.90;;;;;;;;;;5027735;28;20587;-83
2022/01/06 03:54:17;;;;;;;76.32;36.67;;;;;;;;;;5025462;28;20033;-82
2022/01/06 03:56:43;;;;;;;71.25;36.15;;;;;;;;;;5029946;28;20108;-83
2022/01/06 03:59:10;;;;;;;63.63;31.52;;;;;;;;;;5028609;28;20033;-85
2022/01/06 04:01:37;;;;;;;54.92;31.20;;;;;;;;;;5010642;28;20030;-82
2022/01/06 04:04:03;;;;;;;55.75;29.98;;;;;;;;;;5031136;28;20017;-81
2022/01/06 04:06:30;;;;;;;57.28;28.60;;;;;;;;;;5032225;28;20150;-82
2022/01/06 04:08:56;;;;;;;54.20;28.10;;;;;;;;;;5030262;28;20021;-84
2022/01/06 04:11:25;;;;;;;57.10;25.95;;;;;;;;;;5006712;28;20092;-84
2022/01/06 04:13:51;;;;;;;50.15;22.85;;;;;;;;;;5010220;28;20029;-82
2022/01/06 04:16:18;;;;;;;48.13;24.27;;;;;;;;;;5008663;28;20084;-83
2022/01/06 04:18:45;;;;;;;51.97;23.73;;;;;;;;;;5027523;28;20022;-84
2022/01/06 04:21:11;;;;;;;45.30;23.83;;;;;;;;;;5006671;28;20137;-83
2022/01/06 04:23:37;;;;;;;48.90;23.63;;;;;;;;;;5027566;28;20033;-82
2022/01/06 04:26:05;;;;;;;42.70;22.45;;;;;;;;;;5034538;28;20032;-82
2022/01/06 04:28:32;;;;;;;57.95;23.50;;;;;;;;;;5025353;28;20030;-81
2022/01/06 04:30:58;;;;;;;57.97;25.55;;;;;;;;;;5030135;28;20106;-84
2022/01/06 04:33:24;;;;;;;64.70;29.73;;;;;;;;;;5012145;28;20030;-83
2022/01/06 04:35:54;;;;;;;70.20;31.73;;;;;;;;;;5026706;28;20539;-82
2022/01/06 04:38:21;;;;;;;74.45;34.58;;;;;;;;;;5032931;28;20132;-82
2022/01/06 04:40:48;;;;;;;76.72;36.90;;;;;;;;;;5036681;28;20025;-81
2022/01/06 04:43:14;;;;;;;80.88;37.95;;;;;;;;;;5030459;28;21067;-83
2022/01/06 04:45:40;;;;;;;72.88;36.80;;;;;;;;;;5027150;28;20438;-83
2022/01/06 04:48:07;;;;;;;61.63;30.45;;;;;;;;;;5026627;28;20158;-83
2022/01/06 04:50:33;;;;;;;76.57;33.53;;;;;;;;;;5027962;28;20018;-84
2022/01/06 04:52:59;;;;;;;78.85;36.80;;;;;;;;;;5029703;28;20486;-84
2022/01/06 04:55:25;;;;;;;71.32;33.67;;;;;;;;;;5011456;28;20108;-82
2022/01/06 04:57:52;;;;;;;66.80;33.33;;;;;;;;;;5029381;28;20103;-83
2022/01/06 05:00:18;;;;;;;69.35;34.75;;;;;;;;;;5031580;28;20036;-82
2022/01/06 05:02:45;;;;;;;64.88;34.10;;;;;;;;;;5033371;28;20460;-83
2022/01/06 05:05:13;;;;;;;59.30;31.75;;;;;;;;;;5010549;28;20499;-83
2022/01/06 05:07:40;;;;;;;72.72;36.85;;;;;;;;;;5033066;28;20026;-84
2022/01/06 05:10:07;;;;;;;73.18;42.05;;;;;;;;;;5034694;28;20105;-81
2022/01/06 05:12:34;;;;;;;73.03;41.83;;;;;;;;;;5030932;28;20022;-83
2022/01/06 05:15:00;;;;;;;79.35;47.05;;;;;;;;;;5029786;28;20127;-83
2022/01/06 05:17:26;;;;;;;95.18;58.65;;;;;;;;;;5012395;28;20466;-83
2022/01/06 05:19:53;;;;;;;95.18;55.45;;;;;;;;;;5029456;28;20037;-83
2022/01/06 05:22:19;;;;;;;90.43;53.10;;;;;;;;;;5027287;28;20072;-82
2022/01/06 05:24:45;;;;;;;92.68;49.92;;;;;;;;;;5009862;28;20485;-83
2022/01/06 05:27:12;;;;;;;82.40;50.65;;;;;;;;;;5015153;28;20021;-83
2022/01/06 05:29:38;;;;;;;86.63;51.30;;;;;;;;;;5026735;28;20422;-84
2022/01/06 05:32:05;;;;;;;90.57;51.20;;;;;;;;;;5025682;28;20058;-84
2022/01/06 05:34:31;;;;;;;86.43;50.35;;;;;;;;;;5013154;28;20025;-81
2022/01/06 05:36:58;;;;;;;88.60;51.42;;;;;;;;;;5012384;28;20025;-82
2022/01/06 05:39:24;;;;;;;95.75;51.58;;;;;;;;;;5011955;28;20025;-83
2022/01/06 05:41:50;;;;;;;85.95;47.67;;;;;;;;;;5030927;28;20029;-83
2022/01/06 05:44:17;;;;;;;78.85;41.13;;;;;;;;;;5028258;28;20134;-83
2022/01/06 05:46:43;;;;;;;50.53;31.02;;;;;;;;;;5026823;28;20156;-82
2022/01/06 05:49:09;;;;;;;49.72;28.35;;;;;;;;;;5025766;28;20021;-83
2022/01/06 05:51:35;;;;;;;32.17;15.90;;;;;;;;;;5027799;28;20026;-83
2022/01/06 05:54:02;;;;;;;38.45;18.52;;;;;;;;;;5029198;28;20040;-83
2022/01/06 05:56:28;;;;;;;36.58;17.92;;;;;;;;;;5011317;28;20380;-84
2022/01/06 05:58:55;;;;;;;33.53;17.08;;;;;;;;;;5024431;28;20026;-82
2022/01/06 06:01:21;;;;;;;35.40;16.80;;;;;;;;;;5024958;28;20032;-85
2022/01/06 06:03:47;;;;;;;34.35;17.58;;;;;;;;;;5025021;28;20041;-83
2022/01/06 06:06:13;;;;;;;36.75;17.73;;;;;;;;;;5027474;28;20029;-84
2022/01/06 06:08:40;;;;;;;36.38;17.58;;;;;;;;;;5026401;28;20017;-82
2022/01/06 06:11:06;;;;;;;29.48;18.23;;;;;;;;;;5022537;28;20061;-83
2022/01/06 06:13:33;;;;;;;35.65;19.25;;;;;;;;;;5027574;28;20021;-82
2022/01/06 06:15:59;;;;;;;41.95;23.88;;;;;;;;;;5029553;28;20251;-84
2022/01/06 06:18:25;;;;;;;36.70;23.15;;;;;;;;;;5009234;28;20380;-83
2022/01/06 06:20:52;;;;;;;45.65;29.33;;;;;;;;;;5001485;28;20560;-84
2022/01/06 06:23:20;;;;;;;46.75;28.83;;;;;;;;;;5008376;28;20363;-84
2022/01/06 06:25:46;;;;;;;50.15;27.98;;;;;;;;;;5010329;28;20044;-83
2022/01/06 06:28:13;;;;;;;54.88;30.83;;;;;;;;;;5007060;28;20025;-84
2022/01/06 06:30:39;;;;;;;54.15;32.75;;;;;;;;;;4990426;28;20108;-85
2022/01/06 06:33:06;;;;;;;51.05;31.80;;;;;;;;;;5010014;28;20532;-85
2022/01/06 06:35:33;;;;;;;52.10;30.92;;;;;;;;;;5013862;28;20037;-84
2022/01/06 06:38:02;;;;;;;43.88;27.98;;;;;;;;;;5011217;28;20085;-85
2022/01/06 06:40:28;;;;;;;36.72;23.73;;;;;;;;;;4993978;28;20026;-83
2022/01/06 06:42:56;;;;;;;44.35;27.23;;;;;;;;;;4987390;28;20027;-83
2022/01/06 06:45:23;;;;;;;35.42;22.70;;;;;;;;;;5008930;28;20129;-82
2022/01/06 06:47:51;;;;;;;39.25;22.73;;;;;;;;;;4991441;28;20026;-84
2022/01/06 06:50:17;;;;;;;36.47;24.50;;;;;;;;;;5005377;28;20151;-83
2022/01/06 06:52:44;;;;;;;44.33;25.95;;;;;;;;;;5007169;28;20018;-83
2022/01/06 06:55:14;;;;;;;52.13;26.67;;;;;;;;;;5003023;28;20037;-85
2022/01/06 06:57:41;;;;;;;46.95;22.40;;;;;;;;;;5007235;28;20030;-83
2022/01/06 07:00:09;;;;;;;44.40;24.67;;;;;;;;;;4988812;28;20108;-84
2022/01/06 07:02:35;;;;;;;47.67;25.80;;;;;;;;;;5013255;28;20042;-83
2022/01/06 07:05:02;;;;;;;44.83;26.83;;;;;;;;;;5012172;28;20680;-83
2022/01/06 07:07:28;;;;;;;53.50;28.20;;;;;;;;;;5013039;28;20393;-84
2022/01/06 07:09:54;;;;;;;59.17;30.90;;;;;;;;;;5012840;28;20026;-82
2022/01/06 07:12:21;;;;;;;50.88;30.55;;;;;;;;;;5013824;28;20026;-82
2022/01/06 07:14:52;;;;;;;51.33;30.65;;;;;;;;;;5018901;28;20038;-84
2022/01/06 07:17:18;;;;;;;47.60;27.80;;;;;;;;;;5003121;28;20037;-83
2022/01/06 07:19:44;;;;;;;44.90;27.52;;;;;;;;;;5007810;28;20322;-84
2022/01/06 07:22:10;;;;;;;47.78;26.73;;;;;;;;;;5024550;28;20060;-83
2022/01/06 07:24:37;;;;;;;73.05;43.75;;;;;;;;;;5003534;28;20037;-82
2022/01/06 07:27:04;;;;;;;190.43;127.97;;;;;;;;;;5004861;28;20025;-84
2022/01/06 07:29:30;;;;;;;181.40;119.88;;;;;;;;;;5025951;28;20477;-85
2022/01/06 07:31:57;;;;;;;190.02;121.57;;;;;;;;;;5006910;28;20029;-83
2022/01/06 07:34:23;;;;;;;185.55;124.72;;;;;;;;;;5025740;28;20021;-83
2022/01/06 07:36:49;;;;;;;221.95;153.98;;;;;;;;;;5004037;28;20037;-83
2022/01/06 07:39:15;;;;;;;228.68;149.25;;;;;;;;;;5021516;28;20087;-86
2022/01/06 07:41:42;;;;;;;230.68;150.45;;;;;;;;;;5023594;28;20034;-84
2022/01/06 07:44:08;;;;;;;242.63;153.77;;;;;;;;;;5021007;28;20033;-84
2022/01/06 07:46:35;;;;;;;233.02;153.07;;;;;;;;;;5026019;28;20029;-84
2022/01/06 07:49:02;;;;;;;235.85;156.98;;;;;;;;;;5030616;28;20026;-81
2022/01/06 07:51:29;;;;;;;280.70;195.90;;;;;;;;;;5026178;28;20120;-84
2022/01/06 07:53:55;;;;;;;234.88;149.65;;;;;;;;;;5022080;28;20495;-83
2022/01/06 07:56:22;;;;;;;221.18;148.57;;;;;;;;;;5031650;28;20163;-83
2022/01/06 07:58:48;;;;;;;204.52;136.93;;;;;;;;;;5023106;28;20029;-84
2022/01/06 08:01:15;;;;;;;179.25;120.15;;;;;;;;;;5022591;28;20052;-83
2022/01/06 08:03:42;;;;;;;185.40;117.72;;;;;;;;;;5025852;28;20030;-84
2022/01/06 08:06:09;;;;;;;185.68;121.57;;;;;;;;;;5007094;28;20545;-85
2022/01/06 08:08:36;;;;;;;188.00;122.90;;;;;;;;;;5023709;28;20064;-84
2022/01/06 08:11:02;;;;;;;202.32;126.03;;;;;;;;;;5004799;28;20037;-83
2022/01/06 08:13:29;;;;;;;218.60;137.38;;;;;;;;;;5010528;28;20104;-84
2022/01/06 08:15:55;;;;;;;255.68;171.50;;;;;;;;;;5023070;28;20163;-83
2022/01/06 08:18:21;;;;;;;246.73;168.40;;;;;;;;;;5023090;28;20499;-82
2022/01/06 08:20:48;;;;;;;197.68;137.65;;;;;;;;;;5027459;28;20057;-84
2022/01/06 08:23:14;;;;;;;186.10;127.78;;;;;;;;;;5027893;28;20492;-83
2022/01/06 08:25:41;;;;;;;179.73;120.88;;;;;;;;;;5028352;28;20045;-83
2022/01/06 08:28:07;;;;;;;172.13;115.38;;;;;;;;;;5025662;28;20140;-85
2022/01/06 08:30:35;;;;;;;161.20;111.88;;;;;;;;;;5003763;28;20045;-85
2022/01/06 08:33:02;;;;;;;164.70;111.13;;;;;;;;;;5029683;28;20029;-82
2022/01/06 08:35:28;;;;;;;183.60;120.35;;;;;;;;;;5028168;28;20021;-84
2022/01/06 08:37:55;;;;;;;194.25;127.63;;;;;;;;;;5027662;28;20021;-86
2022/01/06 08:40:21;;;;;;;187.40;124.68;;;;;;;;;;5013529;28;20125;-84
2022/01/06 08:42:48;;;;;;;181.63;121.18;;;;;;;;;;5027264;28;20030;-85
2022/01/06 08:45:18;;;;;;;173.75;113.32;;;;;;;;;;5025708;28;20060;-83
2022/01/06 08:47:46;;;;;;;159.05;106.72;;;;;;;;;;5026470;28;20025;-86
2022/01/06 08:50:14;;;;;;;156.20;103.90;;;;;;;;;;5025995;28;20045;-82
2022/01/06 08:52:40;;;;;;;153.43;103.05;;;;;;;;;;5008328;28;20116;-82
2022/01/06 08:55:08;;;;;;;150.43;100.28;;;;;;;;;;5010585;28;20046;-83
2022/01/06 08:57:34;;;;;;;149.88;99.00;;;;;;;;;;5026454;28;20583;-83
2022/01/06 09:00:01;;;;;;;150.07;98.15;;;;;;;;;;5028931;28;20029;-84
2022/01/06 09:02:27;;;;;;;151.35;99.22;;;;;;;;;;5005682;28;20046;-85
2022/01/06 09:04:55;;;;;;;140.80;94.85;;;;;;;;;;5024230;28;20068;-82
2022/01/06 09:07:22;;;;;;;140.40;92.85;;;;;;;;;;5010097;28;20056;-84
2022/01/06 09:09:48;;;;;;;117.45;81.13;;;;;;;;;;5023953;28;20097;-84
2022/01/06 09:12:18;;;;;;;114.22;77.32;;;;;;;;;;5010207;28;20029;-85
2022/01/06 09:14:45;;;;;;;114.85;77.47;;;;;;;;;;5006062;28;20029;-84
2022/01/06 09:17:11;;;;;;;119.25;77.05;;;;;;;;;;5029105;28;20037;-82
2022/01/06 09:19:38;;;;;;;113.95;75.35;;;;;;;;;;5024241;28;20034;-84
2022/01/06 09:22:04;;;;;;;116.55;78.07;;;;;;;;;;5013463;28;20058;-82
2022/01/06 09:24:31;;;;;;;110.60;70.75;;;;;;;;;;4990286;28;20197;-84
2022/01/06 09:26:57;;;;;;;112.70;73.28;;;;;;;;;;4981481;28;20029;-84
2022/01/06 09:29:23;;;;;;;112.18;73.35;;;;;;;;;;5007877;28;20026;-83
2022/01/06 09:31:50;;;;;;;114.15;74.60;;;;;;;;;;4992143;28;20030;-83
2022/01/06 09:34:16;;;;;;;117.38;72.10;;;;;;;;;;4991773;28;20033;-82
2022/01/06 09:36:42;;;;;;;119.72;74.25;;;;;;;;;;5011433;28;20510;-84
2022/01/06 09:39:10;;;;;;;117.38;74.72;;;;;;;;;;4995860;28;20030;-85
2022/01/06 09:41:37;;;;;;;118.38;74.78;;;;;;;;;;4997524;28;20383;-83
2022/01/06 09:44:04;;;;;;;111.68;74.88;;;;;;;;;;5019345;28;20084;-83
2022/01/06 09:46:32;;;;;;;111.68;73.65;;;;;;;;;;5017580;28;20385;-84
2022/01/06 09:49:00;;;;;;;121.28;76.93;;;;;;;;;;5014207;28;20388;-86
2022/01/06 09:51:29;;;;;;;117.63;76.53;;;;;;;;;;5013463;28;20026;-83
2022/01/06 09:53:57;;;;;;;119.13;75.60;;;;;;;;;;5017929;28;20101;-85
2022/01/06 09:56:26;;;;;;;114.13;74.40;;;;;;;;;;5003777;28;20030;-84
2022/01/06 09:58:52;;;;;;;124.20;76.88;;;;;;;;;;5002308;28;20045;-84
2022/01/06 10:01:19;;;;;;;125.00;78.22;;;;;;;;;;5005902;28;20408;-84
2022/01/06 10:03:48;;;;;;;118.00;77.15;;;;;;;;;;5010528;28;20042;-86
2022/01/06 10:06:15;;;;;;;125.00;79.75;;;;;;;;;;4998635;28;20560;-82
2022/01/06 10:08:42;;;;;;;110.32;70.07;;;;;;;;;;4988338;28;20022;-84
2022/01/06 10:11:10;;;;;;;108.80;69.88;;;;;;;;;;5004380;28;20029;-84
2022/01/06 10:13:37;;;;;;;109.97;67.70;;;;;;;;;;4981338;28;20502;-83
2022/01/06 10:16:19;;;;;;;108.57;66.28;;;;;;;;;;4991218;28;20073;-83
2022/01/06 10:19:03;;;;;;;109.60;64.68;;;;;;;;;;5004326;28;20026;-82
2022/01/06 10:21:30;;;;;;;98.03;62.35;;;;;;;;;;5015693;28;20037;-83
2022/01/06 10:24:00;;;;;;;98.22;63.10;;;;;;;;;;5029632;28;20053;-85
2022/01/06 10:26:26;;;;;;;91.10;58.42;;;;;;;;;;5014626;28;20527;-83
2022/01/06 10:28:53;;;;;;;89.93;59.78;;;;;;;;;;5028198;28;20523;-83
2022/01/06 10:31:23;;;;;;;87.25;58.17;;;;;;;;;;5011635;28;20034;-83
2022/01/06 10:33:49;;;;;;;89.35;58.45;;;;;;;;;;5028874;28;20097;-84
2022/01/06 10:36:16;;;;;;;90.88;59.17;;;;;;;;;;5032892;28;20021;-82
2022/01/06 10:38:42;;;;;;;89.55;56.22;;;;;;;;;;5032682;28;20075;-82
2022/01/06 10:41:13;;;;;;;88.82;56.63;;;;;;;;;;5011667;28;20025;-82
2022/01/06 10:43:40;;;;;;;83.43;54.97;;;;;;;;;;5024244;28;20026;-83
2022/01/06 10:46:07;;;;;;;86.45;54.35;;;;;;;;;;5030047;28;20112;-84
2022/01/06 10:48:33;;;;;;;79.03;55.25;;;;;;;;;;5012548;28;20038;-83
2022/01/06 10:51:01;;;;;;;85.78;55.08;;;;;;;;;;5026565;28;20107;-82
2022/01/06 10:53:28;;;;;;;90.05;57.25;;;;;;;;;;5012930;28;20370;-83
2022/01/06 10:55:54;;;;;;;82.05;54.65;;;;;;;;;;5011156;28;20116;-83
2022/01/06 10:58:22;;;;;;;81.32;52.05;;;;;;;;;;5042002;28;20048;-82
2022/01/06 11:00:49;;;;;;;77.25;51.30;;;;;;;;;;5029035;28;20033;-85
2022/01/06 11:03:21;;;;;;;79.35;49.53;;;;;;;;;;5027164;28;20024;-82
2022/01/06 11:05:51;;;;;;;73.82;50.75;;;;;;;;;;5006041;28;20120;-84
2022/01/06 11:08:24;;;;;;;76.25;48.95;;;;;;;;;;5009037;28;20060;-83
2022/01/06 11:11:15;;;;;;;77.35;50.05;;;;;;;;;;5005222;28;20029;-82
2022/01/06 11:13:42;;;;;;;80.10;51.13;;;;;;;;;;5020626;28;20026;-82
2022/01/06 11:16:09;;;;;;;85.93;52.50;;;;;;;;;;5023806;28;20396;-82
2022/01/06 11:18:39;;;;;;;85.72;53.53;;;;;;;;;;5008460;28;20108;-84
2022/01/06 11:21:09;;;;;;;89.18;53.65;;;;;;;;;;5030225;28;20517;-82
2022/01/06 11:23:41;;;;;;;94.70;56.05;;;;;;;;;;5012699;28;20021;-83
2022/01/06 11:26:11;;;;;;;88.63;56.47;;;;;;;;;;5026276;28;20025;-83
2022/01/06 11:28:38;;;;;;;100.57;55.63;;;;;;;;;;5007740;28;20476;-84
2022/01/06 11:31:15;;;;;;;94.32;57.05;;;;;;;;;;5028818;28;20026;-82
2022/01/06 11:33:43;;;;;;;91.18;54.72;;;;;;;;;;5032587;28;20052;-83
2022/01/06 11:36:24;;;;;;;93.82;57.50;;;;;;;;;;5027185;28;20025;-84
2022/01/06 11:38:51;;;;;;;92.22;57.95;;;;;;;;;;5025412;28;20437;-81
2022/01/06 11:41:18;;;;;;;93.28;58.75;;;;;;;;;;5026397;28;20484;-83
2022/01/06 11:43:45;;;;;;;90.03;58.08;;;;;;;;;;5032491;28;20159;-82
2022/01/06 11:46:12;;;;;;;85.65;55.88;;;;;;;;;;5031032;28;20041;-83
2022/01/06 11:48:47;;;;;;;85.53;54.92;;;;;;;;;;5008113;28;20029;-83
2022/01/06 11:51:24;;;;;;;81.65;54.33;;;;;;;;;;5026073;28;20026;-84
2022/01/06 11:53:50;;;;;;;82.95;52.47;;;;;;;;;;5012578;28;20022;-83
2022/01/06 11:56:17;;;;;;;83.22;50.65;;;;;;;;;;5029238;28;20029;-84
2022/01/06 11:58:43;;;;;;;71.22;47.53;;;;;;;;;;5030704;28;20032;-84
2022/01/06 12:01:15;;;;;;;76.32;47.25;;;;;;;;;;5030613;28;20021;-85
2022/01/06 12:03:46;;;;;;;65.20;42.97;;;;;;;;;;5030758;28;20427;-83
2022/01/06 12:06:25;;;;;;;69.65;44.63;;;;;;;;;;5011845;28;20033;-84
2022/01/06 12:08:52;;;;;;;66.47;43.78;;;;;;;;;;5032248;28;20021;-85
2022/01/06 12:11:26;;;;;;;66.43;44.03;;;;;;;;;;5039040;28;20025;-84
2022/01/06 12:13:53;;;;;;;77.57;47.10;;;;;;;;;;5034052;28;20075;-85
2022/01/06 12:16:27;;;;;;;73.78;45.40;;;;;;;;;;5015168;28;20083;-83
2022/01/06 12:18:53;;;;;;;69.65;44.83;;;;;;;;;;5020525;28;20030;-84
2022/01/06 12:21:19;;;;;;;74.85;46.67;;;;;;;;;;5026886;28;20041;-84
2022/01/06 12:23:46;;;;;;;85.95;54.83;;;;;;;;;;5024947;28;20125;-85
2022/01/06 12:26:13;;;;;;;88.03;54.33;;;;;;;;;;5038209;28;20040;-85
2022/01/06 12:28:49;;;;;;;89.55;56.40;;;;;;;;;;5017344;28;20025;-84
2022/01/06 12:31:23;;;;;;;95.25;59.33;;;;;;;;;;5035183;28;20040;-84
2022/01/06 12:33:50;;;;;;;107.43;64.50;;;;;;;;;;5040752;28;20152;-83
2022/01/06 12:36:17;;;;;;;97.13;62.13;;;;;;;;;;5030860;28;20503;-84
2022/01/06 12:38:43;;;;;;;96.45;59.42;;;;;;;;;;5034785;28;20029;-82
2022/01/06 12:41:11;;;;;;;103.43;60.17;;;;;;;;;;5030983;28;20025;-84
2022/01/06 12:43:39;;;;;;;102.95;62.97;;;;;;;;;;5033194;28;20028;-84
2022/01/06 12:46:12;;;;;;;95.47;59.92;;;;;;;;;;5031720;28;20033;-82
2022/01/06 12:48:40;;;;;;;101.60;64.45;;;;;;;;;;5026014;28;20088;-85
2022/01/06 12:51:08;;;;;;;98.82;63.42;;;;;;;;;;5035698;28;20030;-84
2022/01/06 12:53:35;;;;;;;95.40;61.80;;;;;;;;;;5018923;28;20064;-84
2022/01/06 12:56:02;;;;;;;99.63;63.75;;;;;;;;;;5011635;28;20045;-83
2022/01/06 12:58:32;;;;;;;108.95;64.05;;;;;;;;;;5037946;28;20256;-85
2022/01/06 13:01:01;;;;;;;156.43;97.18;;;;;;;;;;5016073;28;20029;-83
2022/01/06 13:03:28;;;;;;;165.60;108.18;;;;;;;;;;5029265;28;20041;-84
2022/01/06 13:05:54;;;;;;;212.70;129.85;;;;;;;;;;5017675;28;20029;-83
2022/01/06 13:08:20;;;;;;;228.85;146.65;;;;;;;;;;5013693;28;20125;-84
2022/01/06 13:10:47;;;;;;;254.80;154.85;;;;;;;;;;5032590;28;20453;-81
2022/01/06 13:13:13;;;;;;;264.30;169.32;;;;;;;;;;5030548;28;20539;-85
2022/01/06 13:15:39;;;;;;;273.35;167.02;;;;;;;;;;5026248;28;20061;-84
2022/01/06 13:18:06;;;;;;;264.65;157.88;;;;;;;;;;5034461;28;20473;-84
2022/01/06 13:20:37;;;;;;;247.70;152.90;;;;;;;;;;5035194;28;20077;-84
2022/01/06 13:23:57;;;;;;;269.23;154.68;;;;;;;;;;5035105;28;20033;-85
2022/01/06 13:26:08;;;;;;;245.07;149.93;;;;;;;;;;5022749;28;20041;-85
2022/01/06 13:28:35;;;;;;;246.77;147.50;;;;;;;;;;5011570;28;20037;-83
2022/01/06 13:31:01;;;;;;;254.75;145.88;;;;;;;;;;5017848;28;20056;-84
2022/01/06 13:33:29;;;;;;;248.57;145.00;;;;;;;;;;5033183;28;21457;-85
2022/01/06 13:36:00;;;;;;;254.95;149.07;;;;;;;;;;5036065;28;20149;-85
2022/01/06 13:38:31;;;;;;;230.48;128.73;;;;;;;;;;5026789;28;20052;-84
2022/01/06 13:40:59;;;;;;;227.57;129.00;;;;;;;;;;5033521;28;20040;-82
2022/01/06 13:43:27;;;;;;;204.07;111.38;;;;;;;;;;5029943;28;20477;-83
2022/01/06 13:45:53;;;;;;;207.18;111.07;;;;;;;;;;5006396;28;20410;-82
2022/01/06 13:48:38;;;;;;;196.63;111.40;;;;;;;;;;5030763;28;20048;-84
2022/01/06 13:51:12;;;;;;;201.95;109.13;;;;;;;;;;5013723;28;20087;-83
2022/01/06 13:53:46;;;;;;;199.57;109.50;;;;;;;;;;5033474;28;20076;-84
2022/01/06 13:56:32;;;;;;;189.05;103.00;;;;;;;;;;5009732;28;20057;-84
2022/01/06 13:59:00;;;;;;;178.73;100.07;;;;;;;;;;5014585;28;20056;-83
2022/01/06 14:01:27;;;;;;;184.40;102.53;;;;;;;;;;5029522;28;20045;-85
2022/01/06 14:03:54;;;;;;;167.57;97.10;;;;;;;;;;5028234;28;20057;-83
2022/01/06 14:06:21;;;;;;;165.45;96.95;;;;;;;;;;5031749;28;20057;-83
2022/01/06 14:08:48;;;;;;;157.07;90.28;;;;;;;;;;5023206;28;20461;-83
2022/01/06 14:11:16;;;;;;;159.52;93.10;;;;;;;;;;5032832;28;20029;-84
2022/01/06 14:13:43;;;;;;;160.40;92.85;;;;;;;;;;5016875;28;20132;-82
2022/01/06 14:16:10;;;;;;;155.45;90.20;;;;;;;;;;5025679;28;20030;-83
2022/01/06 14:18:38;;;;;;;158.85;95.72;;;;;;;;;;5008851;28;20026;-86
2022/01/06 14:21:05;;;;;;;154.85;93.00;;;;;;;;;;5030075;28;20124;-83
2022/01/06 14:23:33;;;;;;;155.85;94.28;;;;;;;;;;5030100;28;20036;-82